Time;durP1;ratioP1;P1;durP2;ratioP2;P2;SDS_P1;SDS_P2;PMS_P1;PMS_P2;Temp;Humidity;BMP_temperature;BMP_pressure;BME280_temperature;BME280_humidity;BME280_pressure;Samples;Min_cycle;Max_cycle;Signal;HPM_P1;HPM_P2
2021/06/12 00:01:04;;;;;;;8.23;5.07;;;;;;;;;;5024462;28;20472;-86
2021/06/12 00:03:41;;;;;;;10.13;5.90;;;;;;;;;;5029768;28;20430;-86
2021/06/12 00:06:20;;;;;;;8.33;5.83;;;;;;;;;;5027910;28;20872;-86
2021/06/12 00:08:49;;;;;;;8.00;6.07;;;;;;;;;;5020213;28;21025;-86
2021/06/12 00:11:23;;;;;;;6.97;5.60;;;;;;;;;;5004823;28;20465;-86
2021/06/12 00:14:05;;;;;;;8.37;6.03;;;;;;;;;;5016723;28;20431;-86
2021/06/12 00:16:47;;;;;;;9.03;6.30;;;;;;;;;;5023754;28;20424;-86
2021/06/12 00:19:15;;;;;;;8.70;6.43;;;;;;;;;;5024009;28;20436;-86
2021/06/12 00:22:02;;;;;;;8.10;5.87;;;;;;;;;;5024758;28;20400;-86
2021/06/12 00:24:34;;;;;;;6.97;5.83;;;;;;;;;;5023988;28;20456;-86
2021/06/12 00:27:07;;;;;;;6.87;5.80;;;;;;;;;;5022658;28;20455;-86
2021/06/12 00:29:36;;;;;;;6.77;5.00;;;;;;;;;;5022014;28;20424;-86
2021/06/12 00:32:13;;;;;;;7.30;5.27;;;;;;;;;;5019453;28;20486;-86
2021/06/12 00:34:57;;;;;;;9.63;5.87;;;;;;;;;;5012327;28;20528;-86
2021/06/12 00:38:00;;;;;;;7.90;6.30;;;;;;;;;;5003296;28;20527;-86
2021/06/12 00:40:31;;;;;;;8.77;5.83;;;;;;;;;;5023618;28;20435;-86
2021/06/12 00:43:03;;;;;;;9.27;5.80;;;;;;;;;;5023008;28;20448;-86
2021/06/12 00:45:35;;;;;;;5.77;5.17;;;;;;;;;;5022953;28;20436;-85
2021/06/12 00:48:14;;;;;;;8.70;5.87;;;;;;;;;;5018670;28;20464;-86
2021/06/12 00:51:18;;;;;;;;;;;;;;;;;;;;;
2021/06/12 00:54:35;;;;;;;6.00;5.20;;;;;;;;;;5000103;28;20527;-85
2021/06/12 00:57:24;;;;;;;6.00;5.40;;;;;;;;;;5001934;28;20456;-85
2021/06/12 00:59:55;;;;;;;7.43;6.03;;;;;;;;;;5016477;28;20420;-87
2021/06/12 01:05:19;;;;;;;5.90;4.87;;;;;;;;;;5022824;28;20507;-86
2021/06/12 01:07:50;;;;;;;8.07;5.73;;;;;;;;;;5023459;28;20960;-87
2021/06/12 01:10:26;;;;;;;7.33;5.30;;;;;;;;;;5022692;28;20456;-86
2021/06/12 01:16:17;;;;;;;5.20;4.70;;;;;;;;;;5012790;28;20423;-88
2021/06/12 01:18:49;;;;;;;6.30;5.03;;;;;;;;;;5020996;28;20419;-85
2021/06/12 01:21:50;;;;;;;;;;;;;;;;;;;;;
2021/06/12 01:27:44;;;;;;;6.07;5.47;;;;;;;;;;5004077;28;20491;-85
2021/06/12 01:30:42;;;;;;;7.67;5.50;;;;;;;;;;5018414;28;20415;-86
2021/06/12 01:33:15;;;;;;;5.37;4.70;;;;;;;;;;5014497;28;20491;-87
2021/06/12 01:35:48;;;;;;;6.83;5.90;;;;;;;;;;5022182;28;20447;-86
2021/06/12 01:38:32;;;;;;;7.13;5.37;;;;;;;;;;5025055;28;20396;-86
2021/06/12 01:41:11;;;;;;;6.47;4.77;;;;;;;;;;5014623;28;20429;-86
2021/06/12 01:47:04;;;;;;;;;;;;;;;;;;;;;
2021/06/12 01:49:58;;;;;;;7.17;5.37;;;;;;;;;;5021546;28;20454;-84
2021/06/12 01:52:39;;;;;;;7.27;4.90;;;;;;;;;;5019397;28;20419;-84
2021/06/12 01:55:27;;;;;;;6.30;5.07;;;;;;;;;;5019368;28;20426;-84
2021/06/12 01:57:56;;;;;;;10.07;5.70;;;;;;;;;;5037290;23;20483;-70
2021/06/12 02:00:23;;;;;;;7.00;5.23;;;;;;;;;;5013908;28;20805;-68
2021/06/12 02:02:49;;;;;;;6.23;5.53;;;;;;;;;;5015698;28;20466;-69
2021/06/12 02:05:18;;;;;;;8.23;4.70;;;;;;;;;;4996925;28;20420;-68
2021/06/12 02:07:44;;;;;;;7.53;5.20;;;;;;;;;;4977349;28;20444;-69
2021/06/12 02:10:14;;;;;;;6.97;4.80;;;;;;;;;;5005332;23;20437;-64
2021/06/12 02:12:40;;;;;;;5.77;4.90;;;;;;;;;;5016830;28;20770;-65
2021/06/12 02:15:07;;;;;;;6.00;4.57;;;;;;;;;;5008172;28;20423;-65
2021/06/12 02:17:34;;;;;;;4.80;4.30;;;;;;;;;;4997003;28;20432;-65
2021/06/12 02:20:01;;;;;;;7.60;5.10;;;;;;;;;;5001393;28;20920;-66
2021/06/12 02:22:28;;;;;;;5.47;4.97;;;;;;;;;;4996630;28;20397;-65
2021/06/12 02:24:54;;;;;;;7.07;4.77;;;;;;;;;;4995748;28;20420;-66
2021/06/12 02:27:21;;;;;;;10.70;5.70;;;;;;;;;;4996846;28;20500;-65
2021/06/12 02:29:48;;;;;;;7.27;5.60;;;;;;;;;;4994494;28;20431;-65
2021/06/12 02:32:16;;;;;;;7.90;5.53;;;;;;;;;;4982517;28;20823;-65
2021/06/12 02:34:42;;;;;;;5.37;4.83;;;;;;;;;;4977094;28;20421;-66
2021/06/12 02:37:08;;;;;;;6.40;5.47;;;;;;;;;;4977002;28;20890;-65
2021/06/12 02:39:35;;;;;;;5.87;4.80;;;;;;;;;;4978861;28;20434;-66
2021/06/12 02:42:01;;;;;;;7.60;5.70;;;;;;;;;;4996357;28;20429;-65
2021/06/12 02:44:27;;;;;;;6.73;5.47;;;;;;;;;;4995469;28;20401;-66
2021/06/12 02:46:56;;;;;;;9.33;5.47;;;;;;;;;;4996344;28;20796;-65
2021/06/12 02:49:25;;;;;;;7.17;5.40;;;;;;;;;;4995502;28;20408;-66
2021/06/12 02:51:55;;;;;;;5.83;5.23;;;;;;;;;;4976687;28;20512;-65
2021/06/12 02:54:22;;;;;;;5.80;5.20;;;;;;;;;;4976298;28;20394;-67
2021/06/12 02:56:48;;;;;;;7.43;5.70;;;;;;;;;;4993845;28;20439;-65
2021/06/12 02:59:17;;;;;;;6.00;5.40;;;;;;;;;;4996224;28;20531;-65
2021/06/12 03:01:43;;;;;;;7.20;5.30;;;;;;;;;;4976917;28;20440;-65
2021/06/12 03:04:11;;;;;;;6.43;5.40;;;;;;;;;;4976723;28;20409;-67
2021/06/12 03:06:37;;;;;;;5.87;4.63;;;;;;;;;;4978253;28;20430;-65
2021/06/12 03:09:04;;;;;;;8.43;4.73;;;;;;;;;;4976587;28;20452;-65
2021/06/12 03:11:30;;;;;;;6.97;5.20;;;;;;;;;;4992205;28;20829;-64
2021/06/12 03:13:57;;;;;;;5.63;4.60;;;;;;;;;;4996078;28;20409;-65
2021/06/12 03:16:23;;;;;;;6.00;5.30;;;;;;;;;;4994701;28;20424;-65
2021/06/12 03:18:50;;;;;;;6.37;4.63;;;;;;;;;;4995961;28;20417;-65
2021/06/12 03:21:18;;;;;;;6.27;4.60;;;;;;;;;;4993621;28;20528;-65
2021/06/12 03:23:45;;;;;;;6.50;5.40;;;;;;;;;;4995588;28;20510;-65
2021/06/12 03:26:11;;;;;;;9.17;5.40;;;;;;;;;;4994575;28;20491;-65
2021/06/12 03:28:38;;;;;;;5.70;5.00;;;;;;;;;;4995476;28;20448;-65
2021/06/12 03:31:05;;;;;;;6.30;4.90;;;;;;;;;;4982868;28;20456;-65
2021/06/12 03:33:31;;;;;;;5.57;4.97;;;;;;;;;;4976127;28;20406;-67
2021/06/12 03:35:58;;;;;;;5.60;4.50;;;;;;;;;;4994268;28;20428;-65
2021/06/12 03:38:25;;;;;;;11.40;5.27;;;;;;;;;;4994461;28;20587;-65
2021/06/12 03:40:51;;;;;;;8.70;5.40;;;;;;;;;;4993966;28;20531;-65
2021/06/12 03:43:17;;;;;;;5.50;3.90;;;;;;;;;;4995237;28;20491;-65
2021/06/12 03:45:43;;;;;;;5.80;5.17;;;;;;;;;;4985169;28;20756;-65
2021/06/12 03:48:11;;;;;;;5.63;5.03;;;;;;;;;;4975839;28;20850;-65
2021/06/12 03:50:38;;;;;;;8.70;5.30;;;;;;;;;;4982925;28;20449;-65
2021/06/12 03:53:05;;;;;;;5.57;4.93;;;;;;;;;;4995102;28;20441;-65
2021/06/12 03:55:31;;;;;;;6.70;4.90;;;;;;;;;;4994305;28;20460;-65
2021/06/12 03:57:58;;;;;;;5.97;4.80;;;;;;;;;;4995010;28;20404;-65
2021/06/12 04:00:24;;;;;;;5.37;4.10;;;;;;;;;;4994042;28;20456;-65
2021/06/12 04:02:50;;;;;;;7.53;4.13;;;;;;;;;;4995301;28;20404;-65
2021/06/12 04:05:17;;;;;;;5.73;4.77;;;;;;;;;;4990383;28;20461;-65
2021/06/12 04:07:43;;;;;;;5.33;4.77;;;;;;;;;;4974755;28;20449;-66
2021/06/12 04:10:10;;;;;;;5.40;4.90;;;;;;;;;;4977909;28;20437;-65
2021/06/12 04:12:36;;;;;;;4.73;4.03;;;;;;;;;;4989137;28;20437;-65
2021/06/12 04:15:03;;;;;;;6.50;4.77;;;;;;;;;;4979099;28;20421;-65
2021/06/12 04:17:29;;;;;;;6.00;4.80;;;;;;;;;;4984051;28;20420;-64
2021/06/12 04:19:55;;;;;;;6.00;5.20;;;;;;;;;;4975362;28;20409;-65
2021/06/12 04:22:21;;;;;;;7.07;5.13;;;;;;;;;;4991526;28;20432;-65
2021/06/12 04:24:47;;;;;;;5.10;4.40;;;;;;;;;;4993405;28;20412;-65
2021/06/12 04:27:13;;;;;;;5.60;4.73;;;;;;;;;;4993505;28;20555;-65
2021/06/12 04:29:39;;;;;;;5.57;3.80;;;;;;;;;;4994853;28;20739;-65
2021/06/12 04:32:05;;;;;;;7.27;6.10;;;;;;;;;;4993892;28;20546;-65
2021/06/12 04:34:31;;;;;;;5.40;4.80;;;;;;;;;;4994806;28;20409;-65
2021/06/12 04:36:59;;;;;;;6.23;5.00;;;;;;;;;;4993692;28;20437;-66
2021/06/12 04:39:25;;;;;;;5.03;4.50;;;;;;;;;;4994305;28;20404;-65
2021/06/12 04:41:51;;;;;;;5.57;4.70;;;;;;;;;;4993378;28;20440;-66
2021/06/12 04:44:17;;;;;;;5.10;3.90;;;;;;;;;;4994427;28;20397;-65
2021/06/12 04:46:43;;;;;;;5.13;4.40;;;;;;;;;;4992210;28;20803;-66
2021/06/12 04:49:10;;;;;;;6.80;5.10;;;;;;;;;;4994332;28;20461;-66
2021/06/12 04:51:36;;;;;;;6.10;4.40;;;;;;;;;;4993474;28;20453;-66
2021/06/12 04:54:03;;;;;;;6.43;4.80;;;;;;;;;;4992066;28;20428;-66
2021/06/12 04:56:29;;;;;;;6.93;4.57;;;;;;;;;;4993351;28;20933;-66
2021/06/12 04:58:55;;;;;;;5.60;4.60;;;;;;;;;;4994257;28;20436;-65
2021/06/12 05:01:21;;;;;;;8.50;4.57;;;;;;;;;;4993047;28;20452;-65
2021/06/12 05:03:47;;;;;;;5.50;4.10;;;;;;;;;;4994117;28;20984;-66
2021/06/12 05:06:13;;;;;;;5.53;4.60;;;;;;;;;;4993266;28;20507;-66
2021/06/12 05:08:39;;;;;;;5.00;4.10;;;;;;;;;;4994035;28;20460;-66
2021/06/12 05:11:05;;;;;;;8.60;4.63;;;;;;;;;;4992943;28;20468;-66
2021/06/12 05:13:35;;;;;;;5.27;4.53;;;;;;;;;;4993930;28;20409;-66
2021/06/12 05:16:01;;;;;;;6.80;5.07;;;;;;;;;;4993197;28;20468;-66
2021/06/12 05:19:00;;;;;;;5.03;4.00;;;;;;;;;;4994060;28;20404;-65
2021/06/12 05:21:19;;;;;;;4.97;4.03;;;;;;;;;;4989627;28;20464;-65
2021/06/12 05:23:45;;;;;;;6.43;4.30;;;;;;;;;;4993830;28;20455;-66
2021/06/12 05:26:13;;;;;;;5.87;4.17;;;;;;;;;;4992551;28;20444;-66
2021/06/12 05:28:39;;;;;;;5.70;4.17;;;;;;;;;;4993600;28;20460;-65
2021/06/12 05:31:05;;;;;;;4.70;4.10;;;;;;;;;;4992592;28;20448;-66
2021/06/12 05:33:33;;;;;;;5.67;4.17;;;;;;;;;;4992546;28;20450;-65
2021/06/12 05:35:59;;;;;;;5.60;3.97;;;;;;;;;;4992522;28;20424;-65
2021/06/12 05:38:26;;;;;;;4.20;3.70;;;;;;;;;;4993917;28;20416;-65
2021/06/12 05:40:52;;;;;;;5.30;4.50;;;;;;;;;;4991877;28;20447;-66
2021/06/12 05:43:18;;;;;;;4.70;4.07;;;;;;;;;;4993833;28;20459;-66
2021/06/12 05:45:45;;;;;;;5.23;4.60;;;;;;;;;;4992896;28;20409;-66
2021/06/12 05:48:11;;;;;;;6.87;4.60;;;;;;;;;;4992802;28;20456;-65
2021/06/12 05:50:37;;;;;;;5.83;4.17;;;;;;;;;;4993593;28;20478;-66
2021/06/12 05:53:03;;;;;;;7.20;4.20;;;;;;;;;;4991061;28;20436;-65
2021/06/12 05:55:29;;;;;;;8.63;4.03;;;;;;;;;;4993288;28;20416;-64
2021/06/12 05:57:55;;;;;;;5.43;3.83;;;;;;;;;;4992102;28;20435;-65
2021/06/12 06:00:21;;;;;;;6.30;4.70;;;;;;;;;;4994304;28;20451;-63
2021/06/12 06:02:47;;;;;;;5.80;3.93;;;;;;;;;;4995636;28;20496;-64
2021/06/12 06:05:14;;;;;;;6.20;4.10;;;;;;;;;;4998620;28;20416;-63
2021/06/12 06:07:40;;;;;;;5.07;4.47;;;;;;;;;;4996921;28;20468;-62
2021/06/12 06:10:06;;;;;;;7.20;4.50;;;;;;;;;;4997694;28;20476;-63
2021/06/12 06:12:34;;;;;;;4.90;4.37;;;;;;;;;;4997464;28;20436;-63
2021/06/12 06:15:00;;;;;;;9.53;4.73;;;;;;;;;;4998110;28;20432;-62
2021/06/12 06:17:26;;;;;;;4.47;4.03;;;;;;;;;;4999126;28;20435;-62
2021/06/12 06:19:52;;;;;;;4.97;4.40;;;;;;;;;;4999782;28;20419;-62
2021/06/12 06:22:18;;;;;;;5.90;4.23;;;;;;;;;;4998943;28;20444;-62
2021/06/12 06:24:44;;;;;;;5.07;4.40;;;;;;;;;;4999695;28;20890;-61
2021/06/12 06:27:10;;;;;;;5.90;5.30;;;;;;;;;;4999088;28;20436;-62
2021/06/12 06:29:36;;;;;;;5.27;4.77;;;;;;;;;;4999210;28;20428;-62
2021/06/12 06:32:03;;;;;;;5.00;4.50;;;;;;;;;;5000902;28;20817;-62
2021/06/12 06:34:29;;;;;;;5.97;5.10;;;;;;;;;;4999432;28;20416;-61
2021/06/12 06:36:55;;;;;;;4.80;4.20;;;;;;;;;;4997776;28;20424;-65
2021/06/12 06:39:21;;;;;;;5.00;4.50;;;;;;;;;;4998334;28;20424;-62
2021/06/12 06:41:48;;;;;;;6.70;5.07;;;;;;;;;;4997407;28;20455;-65
2021/06/12 06:44:14;;;;;;;5.90;5.30;;;;;;;;;;4996672;28;20413;-66
2021/06/12 06:46:41;;;;;;;5.60;4.70;;;;;;;;;;4995517;28;20428;-67
2021/06/12 06:49:07;;;;;;;5.40;4.67;;;;;;;;;;4994584;28;20483;-66
2021/06/12 06:51:33;;;;;;;6.13;4.60;;;;;;;;;;4995322;28;20426;-67
2021/06/12 06:53:59;;;;;;;4.93;4.40;;;;;;;;;;4996674;28;20397;-67
2021/06/12 06:56:25;;;;;;;7.77;5.10;;;;;;;;;;4995302;28;20405;-68
2021/06/12 06:58:51;;;;;;;4.90;4.40;;;;;;;;;;4996307;28;20440;-66
2021/06/12 07:01:18;;;;;;;6.00;5.40;;;;;;;;;;4987345;28;20453;-67
2021/06/12 07:03:44;;;;;;;5.30;4.80;;;;;;;;;;4995855;28;20439;-67
2021/06/12 07:06:10;;;;;;;5.80;4.40;;;;;;;;;;4996149;28;20906;-66
2021/06/12 07:08:36;;;;;;;5.43;4.93;;;;;;;;;;4995101;28;21026;-66
2021/06/12 07:11:02;;;;;;;7.03;5.53;;;;;;;;;;4995913;28;20447;-66
2021/06/12 07:13:28;;;;;;;7.57;5.33;;;;;;;;;;4994979;28;20424;-66
2021/06/12 07:15:54;;;;;;;9.03;5.57;;;;;;;;;;4995149;28;20897;-67
2021/06/12 07:18:20;;;;;;;6.80;4.80;;;;;;;;;;4994646;28;20432;-67
2021/06/12 07:20:47;;;;;;;5.70;4.80;;;;;;;;;;4994778;28;20977;-67
2021/06/12 07:23:17;;;;;;;5.43;4.93;;;;;;;;;;4981345;28;20488;-67
2021/06/12 07:25:44;;;;;;;5.97;4.80;;;;;;;;;;4976394;28;20409;-66
2021/06/12 07:28:10;;;;;;;5.13;4.63;;;;;;;;;;4989223;28;20513;-67
2021/06/12 07:30:40;;;;;;;8.00;5.20;;;;;;;;;;4995591;28;20430;-67
2021/06/12 07:33:10;;;;;;;6.90;5.80;;;;;;;;;;4994793;28;20780;-67
2021/06/12 07:35:36;;;;;;;5.57;4.97;;;;;;;;;;4994344;28;20793;-67
2021/06/12 07:38:03;;;;;;;5.83;5.03;;;;;;;;;;4994453;28;20432;-67
2021/06/12 07:40:29;;;;;;;6.37;5.03;;;;;;;;;;4995221;28;20921;-67
2021/06/12 07:42:55;;;;;;;7.30;5.20;;;;;;;;;;4993226;28;20439;-67
2021/06/12 07:45:22;;;;;;;7.03;5.73;;;;;;;;;;4993603;28;20444;-67
2021/06/12 07:47:48;;;;;;;5.10;4.60;;;;;;;;;;4984966;28;20516;-67
2021/06/12 07:50:15;;;;;;;8.23;5.70;;;;;;;;;;4975674;28;20587;-67
2021/06/12 07:52:41;;;;;;;6.10;5.30;;;;;;;;;;4983802;28;20438;-67
2021/06/12 07:55:07;;;;;;;7.67;5.87;;;;;;;;;;4994173;28;20460;-67
2021/06/12 07:57:33;;;;;;;8.67;5.90;;;;;;;;;;4994048;28;20506;-67
2021/06/12 07:59:59;;;;;;;7.33;5.43;;;;;;;;;;4989357;28;20437;-67
2021/06/12 08:02:26;;;;;;;9.43;5.33;;;;;;;;;;4988421;28;20764;-67
2021/06/12 08:04:53;;;;;;;6.03;5.43;;;;;;;;;;4995040;28;20405;-67
2021/06/12 08:07:19;;;;;;;5.97;5.33;;;;;;;;;;4989505;28;20465;-66
2021/06/12 08:09:46;;;;;;;6.37;4.90;;;;;;;;;;4975340;28;20409;-66
2021/06/12 08:12:13;;;;;;;7.83;5.37;;;;;;;;;;4979139;28;20477;-66
2021/06/12 08:14:39;;;;;;;7.10;5.97;;;;;;;;;;4994835;28;20412;-66
2021/06/12 08:17:05;;;;;;;6.93;6.23;;;;;;;;;;4994730;28;20792;-67
2021/06/12 08:19:33;;;;;;;6.77;5.50;;;;;;;;;;4994636;28;20396;-67
2021/06/12 08:21:59;;;;;;;6.30;4.73;;;;;;;;;;4992264;28;20435;-68
2021/06/12 08:24:25;;;;;;;5.87;5.27;;;;;;;;;;4994913;28;20768;-67
2021/06/12 08:26:51;;;;;;;5.00;4.50;;;;;;;;;;4994819;28;20500;-67
2021/06/12 08:29:17;;;;;;;6.73;5.67;;;;;;;;;;4975428;28;20480;-67
2021/06/12 08:31:44;;;;;;;7.40;5.50;;;;;;;;;;4974775;28;20422;-67
2021/06/12 08:34:10;;;;;;;6.87;5.90;;;;;;;;;;4992538;28;20934;-66
2021/06/12 08:36:36;;;;;;;8.47;6.13;;;;;;;;;;4994298;28;20407;-67
2021/06/12 08:39:02;;;;;;;9.10;6.07;;;;;;;;;;4977155;28;20527;-67
2021/06/12 08:41:28;;;;;;;9.67;6.13;;;;;;;;;;4974721;28;20765;-67
2021/06/12 08:43:59;;;;;;;6.10;4.97;;;;;;;;;;4989729;28;20545;-67
2021/06/12 08:46:26;;;;;;;6.47;5.67;;;;;;;;;;4992922;28;20404;-67
2021/06/12 08:48:52;;;;;;;6.37;5.63;;;;;;;;;;4993348;28;20456;-67
2021/06/12 08:51:18;;;;;;;8.50;5.80;;;;;;;;;;4993994;28;20433;-67
2021/06/12 08:53:44;;;;;;;6.07;5.23;;;;;;;;;;4992751;28;20429;-67
2021/06/12 08:56:11;;;;;;;7.00;5.40;;;;;;;;;;4993792;28;20491;-67
2021/06/12 08:58:37;;;;;;;6.00;4.73;;;;;;;;;;4993000;28;20471;-67
2021/06/12 09:01:03;;;;;;;6.37;4.30;;;;;;;;;;4992708;28;20452;-67
2021/06/12 09:03:29;;;;;;;6.30;4.50;;;;;;;;;;4993077;28;20787;-67
2021/06/12 09:06:00;;;;;;;5.40;4.70;;;;;;;;;;4993653;28;20413;-67
2021/06/12 09:08:27;;;;;;;5.57;4.97;;;;;;;;;;4993154;28;20463;-67
2021/06/12 09:10:58;;;;;;;5.60;5.00;;;;;;;;;;4993547;28;20436;-67
2021/06/12 09:13:36;;;;;;;4.97;4.47;;;;;;;;;;4991665;28;20428;-66
2021/06/12 09:16:04;;;;;;;7.60;5.73;;;;;;;;;;4993609;28;20400;-66
2021/06/12 09:18:37;;;;;;;6.30;5.70;;;;;;;;;;4992987;28;20814;-66
2021/06/12 09:21:04;;;;;;;5.43;4.83;;;;;;;;;;4993791;28;20432;-66
2021/06/12 09:23:37;;;;;;;7.53;6.30;;;;;;;;;;4992618;28;21011;-67
2021/06/12 09:26:06;;;;;;;5.70;5.20;;;;;;;;;;4993411;28;20455;-66
2021/06/12 09:28:44;;;;;;;5.93;5.17;;;;;;;;;;4991477;28;20464;-67
2021/06/12 09:31:18;;;;;;;7.10;5.87;;;;;;;;;;4994605;28;20416;-67
2021/06/12 09:33:44;;;;;;;7.27;6.57;;;;;;;;;;4985830;28;20507;-67
2021/06/12 09:36:10;;;;;;;7.40;6.10;;;;;;;;;;4972621;28;20508;-67
2021/06/12 09:38:38;;;;;;;10.80;5.80;;;;;;;;;;4979854;28;20435;-66
2021/06/12 09:41:23;;;;;;;7.60;6.20;;;;;;;;;;4993189;28;20429;-67
2021/06/12 09:43:49;;;;;;;6.23;5.60;;;;;;;;;;4992568;28;20778;-68
2021/06/12 09:46:37;;;;;;;5.87;5.33;;;;;;;;;;4993240;28;20412;-67
2021/06/12 09:49:04;;;;;;;6.60;5.90;;;;;;;;;;4991167;28;20456;-67
2021/06/12 09:51:31;;;;;;;6.60;6.00;;;;;;;;;;4992406;28;20937;-67
2021/06/12 09:53:58;;;;;;;6.67;5.60;;;;;;;;;;4992059;28;20425;-67
2021/06/12 09:56:25;;;;;;;5.90;5.30;;;;;;;;;;4993230;28;20408;-67
2021/06/12 09:58:51;;;;;;;5.97;5.37;;;;;;;;;;4992420;28;20817;-67
2021/06/12 10:01:20;;;;;;;8.40;5.60;;;;;;;;;;4993142;28;20443;-67
2021/06/12 10:03:47;;;;;;;5.43;4.93;;;;;;;;;;4991343;28;20415;-67
2021/06/12 10:06:23;;;;;;;5.97;4.73;;;;;;;;;;4993722;28;20404;-67
2021/06/12 10:08:50;;;;;;;5.30;4.80;;;;;;;;;;4996167;28;20940;-67
2021/06/12 10:11:22;;;;;;;5.67;5.17;;;;;;;;;;4996570;28;20525;-67
2021/06/12 10:13:48;;;;;;;6.13;4.77;;;;;;;;;;4990176;28;20429;-67
2021/06/12 10:16:14;;;;;;;6.63;4.80;;;;;;;;;;4977571;28;20769;-67
2021/06/12 10:18:41;;;;;;;8.30;5.67;;;;;;;;;;4981718;28;20515;-67
2021/06/12 10:21:11;;;;;;;6.10;5.27;;;;;;;;;;4996763;28;20431;-67
2021/06/12 10:23:41;;;;;;;6.63;4.83;;;;;;;;;;4995926;28;20518;-67
2021/06/12 10:26:08;;;;;;;12.20;4.40;;;;;;;;;;4994985;28;20802;-67
2021/06/12 10:28:34;;;;;;;7.27;4.67;;;;;;;;;;4995781;28;20469;-67
2021/06/12 10:31:07;;;;;;;6.03;4.80;;;;;;;;;;4996827;28;20429;-67
2021/06/12 10:33:34;;;;;;;5.60;5.10;;;;;;;;;;4995937;28;20848;-67
2021/06/12 10:36:16;;;;;;;5.13;4.63;;;;;;;;;;4996975;28;20397;-67
2021/06/12 10:38:44;;;;;;;5.57;3.40;;;;;;;;;;4995643;28;20490;-67
2021/06/12 10:41:20;;;;;;;4.73;4.03;;;;;;;;;;4996518;28;20420;-67
2021/06/12 10:43:47;;;;;;;4.10;3.70;;;;;;;;;;4995392;28;20456;-67
2021/06/12 10:46:14;;;;;;;4.60;4.10;;;;;;;;;;4995232;28;20873;-67
2021/06/12 10:49:00;;;;;;;4.17;3.77;;;;;;;;;;4981120;28;20475;-67
2021/06/12 10:51:26;;;;;;;6.30;4.07;;;;;;;;;;4996699;28;20428;-67
2021/06/12 10:54:19;;;;;;;7.53;4.13;;;;;;;;;;4995644;28;20446;-67
2021/06/12 10:56:47;;;;;;;4.67;3.97;;;;;;;;;;4996744;28;20420;-66
2021/06/12 10:59:33;;;;;;;5.23;3.90;;;;;;;;;;4991811;28;20471;-67
2021/06/12 11:02:23;;;;;;;4.67;3.60;;;;;;;;;;4996468;28;20428;-66
2021/06/12 11:04:53;;;;;;;6.00;4.00;;;;;;;;;;4995776;28;20486;-67
2021/06/12 11:07:35;;;;;;;4.07;3.37;;;;;;;;;;4996771;28;20411;-66
2021/06/12 11:10:13;;;;;;;6.67;3.47;;;;;;;;;;4995152;28;20482;-67
2021/06/12 11:12:39;;;;;;;4.00;3.60;;;;;;;;;;4996975;28;20385;-67
2021/06/12 11:15:24;;;;;;;4.63;3.77;;;;;;;;;;4995646;28;20496;-66
2021/06/12 11:18:09;;;;;;;4.10;3.70;;;;;;;;;;4996579;28;20425;-66
2021/06/12 11:20:35;;;;;;;4.97;3.70;;;;;;;;;;4996097;28;20518;-67
2021/06/12 11:23:03;;;;;;;5.00;3.50;;;;;;;;;;4997681;28;20420;-66
2021/06/12 11:25:29;;;;;;;4.17;3.30;;;;;;;;;;4997261;28;20435;-66
2021/06/12 11:28:15;;;;;;;4.37;3.23;;;;;;;;;;4997223;28;20762;-66
2021/06/12 11:30:41;;;;;;;5.43;3.90;;;;;;;;;;4996823;28;20452;-66
2021/06/12 11:33:08;;;;;;;4.03;3.60;;;;;;;;;;4996731;28;20432;-66
2021/06/12 11:35:43;;;;;;;4.47;3.77;;;;;;;;;;4996355;28;20428;-66
2021/06/12 11:38:09;;;;;;;4.57;4.07;;;;;;;;;;4995606;28;20424;-73
2021/06/12 11:40:36;;;;;;;5.07;3.43;;;;;;;;;;4995716;28;20448;-73
2021/06/12 11:43:02;;;;;;;3.93;3.53;;;;;;;;;;4994444;28;20439;-67
2021/06/12 11:45:30;;;;;;;5.00;3.30;;;;;;;;;;4993640;28;20440;-66
2021/06/12 11:47:57;;;;;;;5.70;4.07;;;;;;;;;;4994344;28;20456;-66
2021/06/12 11:50:31;;;;;;;3.77;3.37;;;;;;;;;;4994726;28;20529;-66
2021/06/12 11:52:57;;;;;;;4.30;3.90;;;;;;;;;;4994411;28;20460;-66
2021/06/12 11:55:26;;;;;;;4.20;3.53;;;;;;;;;;4993071;28;20440;-66
2021/06/12 11:57:54;;;;;;;4.40;3.77;;;;;;;;;;4995463;28;20413;-66
2021/06/12 12:00:28;;;;;;;4.83;4.33;;;;;;;;;;4993943;28;20452;-67
2021/06/12 12:03:17;;;;;;;4.80;3.37;;;;;;;;;;4995218;28;20416;-66
2021/06/12 12:05:44;;;;;;;3.47;2.97;;;;;;;;;;4989407;28;20632;-67
2021/06/12 12:08:11;;;;;;;4.23;3.60;;;;;;;;;;4993438;28;20464;-67
2021/06/12 12:10:38;;;;;;;4.10;3.50;;;;;;;;;;4994518;28;20467;-66
2021/06/12 12:13:05;;;;;;;5.27;3.90;;;;;;;;;;4995372;28;20409;-67
2021/06/12 12:15:41;;;;;;;6.33;4.10;;;;;;;;;;4994279;28;20439;-67
2021/06/12 12:18:09;;;;;;;4.60;3.57;;;;;;;;;;4995203;28;20416;-66
2021/06/12 12:20:39;;;;;;;4.43;4.00;;;;;;;;;;4979425;28;20963;-67
2021/06/12 12:23:25;;;;;;;4.07;3.67;;;;;;;;;;4975871;28;20404;-66
2021/06/12 12:25:54;;;;;;;4.00;3.57;;;;;;;;;;4975641;28;20433;-67
2021/06/12 12:28:22;;;;;;;4.97;3.73;;;;;;;;;;4975361;28;20507;-67
2021/06/12 12:30:49;;;;;;;5.20;4.50;;;;;;;;;;4991427;28;20556;-67
2021/06/12 12:33:17;;;;;;;4.60;4.03;;;;;;;;;;4994836;28;20409;-67
2021/06/12 12:35:43;;;;;;;4.93;4.40;;;;;;;;;;4993948;28;20428;-67
2021/06/12 12:38:13;;;;;;;8.73;4.10;;;;;;;;;;4994979;28;20404;-67
2021/06/12 12:40:39;;;;;;;3.90;3.50;;;;;;;;;;4979708;28;20475;-67
2021/06/12 12:43:06;;;;;;;4.00;3.37;;;;;;;;;;4975014;28;20405;-67
2021/06/12 12:45:32;;;;;;;5.27;4.40;;;;;;;;;;4975284;28;20542;-67
2021/06/12 12:47:59;;;;;;;4.83;3.67;;;;;;;;;;4974888;28;20602;-67
2021/06/12 12:50:25;;;;;;;4.60;3.60;;;;;;;;;;4987009;28;20522;-66
2021/06/12 12:53:06;;;;;;;6.10;3.80;;;;;;;;;;4993241;28;20436;-67
2021/06/12 12:55:33;;;;;;;6.60;3.70;;;;;;;;;;4993394;28;20428;-67
2021/06/12 12:57:59;;;;;;;5.17;4.40;;;;;;;;;;4994841;28;20408;-67
2021/06/12 13:00:28;;;;;;;7.13;3.93;;;;;;;;;;4993232;28;20463;-67
2021/06/12 13:02:58;;;;;;;4.67;4.17;;;;;;;;;;4994314;28;20526;-67
2021/06/12 13:05:24;;;;;;;4.57;4.17;;;;;;;;;;4993546;28;20578;-67
2021/06/12 13:07:58;;;;;;;4.07;3.50;;;;;;;;;;4994250;28;21015;-67
2021/06/12 13:10:34;;;;;;;5.07;4.10;;;;;;;;;;4993263;28;20460;-67
2021/06/12 13:13:01;;;;;;;4.77;4.03;;;;;;;;;;4994504;28;20400;-67
2021/06/12 13:15:27;;;;;;;4.67;4.00;;;;;;;;;;4984227;28;20925;-67
2021/06/12 13:18:04;;;;;;;8.33;4.30;;;;;;;;;;4974759;28;20417;-67
2021/06/12 13:20:30;;;;;;;4.30;3.90;;;;;;;;;;4985518;28;20663;-67
2021/06/12 13:22:56;;;;;;;8.10;4.43;;;;;;;;;;4994485;28;20463;-67
2021/06/12 13:25:23;;;;;;;6.73;5.17;;;;;;;;;;4993211;28;20498;-66
2021/06/12 13:27:52;;;;;;;4.30;3.90;;;;;;;;;;4993700;28;20460;-67
2021/06/12 13:30:18;;;;;;;5.30;4.30;;;;;;;;;;4993141;28;20448;-67
2021/06/12 13:32:50;;;;;;;5.03;4.23;;;;;;;;;;4994284;28;20482;-67
2021/06/12 13:35:24;;;;;;;4.07;3.20;;;;;;;;;;4993142;28;20467;-66
2021/06/12 13:38:09;;;;;;;5.20;4.40;;;;;;;;;;4993016;28;20407;-67
2021/06/12 13:40:36;;;;;;;4.57;3.60;;;;;;;;;;4993732;28;20817;-67
2021/06/12 13:43:12;;;;;;;4.73;4.07;;;;;;;;;;4998414;28;20414;-67
2021/06/12 13:45:42;;;;;;;8.50;4.27;;;;;;;;;;4996894;28;20432;-67
2021/06/12 13:48:08;;;;;;;5.00;4.50;;;;;;;;;;4996592;28;20460;-67
2021/06/12 13:50:34;;;;;;;4.87;4.37;;;;;;;;;;4993482;28;20554;-67
2021/06/12 13:53:00;;;;;;;5.93;4.10;;;;;;;;;;4996095;28;20401;-67
2021/06/12 13:55:26;;;;;;;6.03;4.60;;;;;;;;;;4987608;28;20446;-67
2021/06/12 13:57:53;;;;;;;5.57;4.93;;;;;;;;;;4977814;28;20401;-67
2021/06/12 14:00:19;;;;;;;5.23;4.40;;;;;;;;;;4976611;28;20449;-68
2021/06/12 14:02:45;;;;;;;5.63;4.90;;;;;;;;;;4989948;28;20787;-67
2021/06/12 14:05:12;;;;;;;5.47;4.97;;;;;;;;;;4995494;28;20439;-67
2021/06/12 14:07:41;;;;;;;5.87;4.70;;;;;;;;;;4997155;28;20516;-67
2021/06/12 14:10:10;;;;;;;5.70;4.97;;;;;;;;;;4995953;28;20428;-68
2021/06/12 14:12:36;;;;;;;7.37;4.70;;;;;;;;;;4998162;28;20452;-67
2021/06/12 14:15:03;;;;;;;5.23;4.67;;;;;;;;;;4994251;28;20428;-67
2021/06/12 14:17:29;;;;;;;5.07;4.27;;;;;;;;;;4997557;28;20495;-67
2021/06/12 14:19:55;;;;;;;8.60;4.80;;;;;;;;;;4996448;28;20424;-67
2021/06/12 14:22:21;;;;;;;5.50;5.00;;;;;;;;;;4997248;28;20409;-67
2021/06/12 14:24:47;;;;;;;6.33;4.80;;;;;;;;;;4996007;28;20436;-67
2021/06/12 14:27:13;;;;;;;5.83;5.00;;;;;;;;;;4997416;28;20408;-66
2021/06/12 14:29:39;;;;;;;5.33;4.83;;;;;;;;;;4983478;28;20429;-66
2021/06/12 14:32:06;;;;;;;6.20;4.87;;;;;;;;;;4977729;28;20428;-66
2021/06/12 14:34:33;;;;;;;6.20;5.03;;;;;;;;;;4989495;28;20433;-67
2021/06/12 14:36:59;;;;;;;5.90;5.37;;;;;;;;;;4997271;28;20404;-67
2021/06/12 14:39:25;;;;;;;7.87;6.27;;;;;;;;;;4995978;28;20467;-67
2021/06/12 14:41:52;;;;;;;7.97;6.00;;;;;;;;;;4995595;28;20456;-67
2021/06/12 14:44:18;;;;;;;11.77;6.87;;;;;;;;;;4995455;28;20925;-67
2021/06/12 14:46:45;;;;;;;8.10;7.23;;;;;;;;;;4996703;28;20455;-66
2021/06/12 14:49:11;;;;;;;7.47;6.67;;;;;;;;;;4995658;28;20562;-67
2021/06/12 14:51:38;;;;;;;6.83;6.23;;;;;;;;;;4995043;28;20590;-66
2021/06/12 14:54:04;;;;;;;6.90;6.20;;;;;;;;;;4992732;28;20430;-67
2021/06/12 14:56:30;;;;;;;9.07;7.07;;;;;;;;;;4977576;28;20763;-66
2021/06/12 14:58:56;;;;;;;6.60;6.00;;;;;;;;;;4978421;28;20409;-67
2021/06/12 15:01:22;;;;;;;7.57;6.87;;;;;;;;;;4996768;28;20429;-66
2021/06/12 15:03:48;;;;;;;7.47;6.00;;;;;;;;;;4996792;28;20770;-67
2021/06/12 15:06:14;;;;;;;13.80;6.80;;;;;;;;;;4994728;28;20905;-67
2021/06/12 15:08:41;;;;;;;7.43;5.70;;;;;;;;;;4996744;28;20482;-67
2021/06/12 15:11:07;;;;;;;9.03;6.00;;;;;;;;;;4981351;28;20844;-66